createdAt,value
2018-12-24T00:02:13.009Z,7.94
2018-12-24T00:08:08.027Z,7.85
2018-12-24T00:14:03.037Z,7.76
2018-12-24T00:19:58.059Z,6.73
2018-12-24T00:25:53.021Z,7.33
2018-12-24T00:31:48.045Z,6.16
2018-12-24T00:37:43.037Z,6.13
2018-12-24T00:43:38.058Z,5.99
2018-12-24T00:49:33.071Z,6.23
2018-12-24T00:55:28.076Z,5.57
2018-12-24T01:01:23.071Z,5.02
2018-12-24T01:07:18.040Z,6.47
2018-12-24T01:13:13.064Z,6.44
2018-12-24T01:19:08.055Z,6.22
2018-12-24T01:25:03.064Z,6.11
2018-12-24T01:30:58.069Z,5.36
2018-12-24T01:36:53.080Z,5.84
2018-12-24T01:42:48.084Z,5.68
2018-12-24T01:48:43.066Z,5.96
2018-12-24T01:54:38.069Z,5.65
2018-12-24T02:00:33.098Z,5.19
2018-12-24T02:06:28.082Z,5.43
2018-12-24T02:12:23.082Z,5.84
2018-12-24T02:18:18.089Z,5.95
2018-12-24T02:24:13.082Z,5.7
2018-12-24T02:30:08.101Z,5.49
2018-12-24T02:36:03.104Z,6.12
2018-12-24T02:41:58.096Z,5.78
2018-12-24T02:47:53.115Z,6.15
2018-12-24T02:53:48.118Z,4.99
2018-12-24T02:59:43.097Z,5.47
2018-12-24T03:05:38.129Z,5.43
2018-12-24T03:11:33.116Z,5.69
2018-12-24T03:17:28.164Z,4.75
2018-12-24T03:23:23.110Z,4.21
2018-12-24T03:29:18.116Z,5.51
2018-12-24T03:35:13.139Z,4.24
2018-12-24T03:41:08.134Z,5.25
2018-12-24T03:47:03.138Z,4.29
2018-12-24T03:52:58.148Z,4.14
2018-12-24T03:58:53.146Z,5.11
2018-12-24T04:04:48.148Z,4.87
2018-12-24T04:10:43.136Z,4.92
2018-12-24T04:16:38.143Z,4.77
2018-12-24T04:22:33.138Z,4.44
2018-12-24T04:28:28.132Z,5.24
2018-12-24T04:34:23.168Z,5.23
2018-12-24T04:40:18.204Z,5.51
2018-12-24T04:46:13.172Z,5.28
2018-12-24T04:52:08.167Z,5.93
2018-12-24T04:58:03.185Z,6.48
2018-12-24T05:03:58.197Z,6.78
2018-12-24T05:09:53.172Z,6.75
2018-12-24T05:15:48.180Z,8.15
2018-12-24T05:21:43.185Z,7.25
2018-12-24T05:27:38.191Z,7.44
2018-12-24T05:33:33.188Z,7.68
2018-12-24T05:39:28.181Z,6.8
2018-12-24T05:45:23.222Z,7.05
2018-12-24T05:51:18.195Z,7.36
2018-12-24T05:57:13.202Z,6.67
2018-12-24T06:03:08.209Z,6.42
2018-12-24T06:09:03.223Z,6.42
2018-12-24T06:14:58.260Z,5.73
2018-12-24T06:20:53.215Z,6.15
2018-12-24T06:26:48.255Z,6.16
2018-12-24T06:32:43.198Z,6.23
2018-12-24T06:38:38.235Z,5.99
2018-12-24T06:44:33.211Z,6.05
2018-12-24T06:50:28.258Z,5.59
2018-12-24T06:56:23.279Z,5.86
2018-12-24T07:02:18.241Z,5.83
2018-12-24T07:08:13.273Z,5.8
2018-12-24T07:14:15.336Z,7.24
2018-12-24T07:20:03.286Z,7.34
2018-12-24T07:25:58.263Z,7.04
2018-12-24T07:31:53.299Z,7.43
2018-12-24T07:37:48.284Z,7.83
2018-12-24T07:43:43.241Z,7.63
2018-12-24T07:49:38.241Z,7.9
2018-12-24T07:55:33.275Z,7.32
2018-12-24T08:01:28.265Z,8.28
2018-12-24T08:07:23.268Z,7.03
2018-12-24T08:13:18.259Z,8.18
2018-12-24T08:19:13.268Z,8.2
2018-12-24T08:25:08.256Z,7.9
2018-12-24T08:31:03.353Z,7.43
2018-12-24T08:36:58.303Z,7.79
2018-12-24T08:42:53.304Z,7.21
2018-12-24T08:48:48.301Z,6.62
2018-12-24T08:54:43.336Z,12.63
2018-12-24T09:00:38.360Z,9.81
2018-12-24T09:06:33.340Z,6.51
2018-12-24T09:12:28.318Z,6.43
2018-12-24T09:18:23.324Z,8.94
2018-12-24T09:24:18.312Z,7.63
2018-12-24T09:30:13.405Z,8.6
2018-12-24T09:36:08.331Z,6.9
2018-12-24T09:42:03.328Z,9.49
2018-12-24T09:47:58.345Z,7.6
2018-12-24T09:53:53.389Z,6.74
2018-12-24T09:59:48.333Z,7.29
2018-12-24T10:05:43.348Z,9.04
2018-12-24T10:11:38.383Z,19.17
2018-12-24T10:17:33.332Z,6.63
2018-12-24T10:23:28.376Z,7.85
2018-12-24T10:29:23.342Z,7.2
2018-12-24T10:35:18.344Z,6.37
2018-12-24T10:41:13.354Z,8.91
2018-12-24T10:47:08.349Z,8.96
2018-12-24T10:53:03.369Z,9.05
2018-12-24T10:58:58.358Z,6.09
2018-12-24T11:04:53.365Z,6.85
2018-12-24T11:10:48.380Z,6.3
2018-12-24T11:16:43.376Z,5.99
2018-12-24T11:22:38.375Z,6.89
2018-12-24T11:28:33.372Z,7.24
2018-12-24T11:34:28.369Z,16.97
2018-12-24T11:40:23.378Z,9.72
2018-12-24T11:46:18.416Z,7.29
2018-12-24T11:52:13.398Z,15.16
2018-12-24T11:58:13.179Z,8.4
2018-12-24T12:04:03.394Z,9.78
2018-12-24T12:09:58.431Z,8.36
2018-12-24T12:15:53.408Z,11.8
2018-12-24T12:21:48.384Z,9.23
2018-12-24T12:27:43.384Z,8.42
2018-12-24T12:33:38.425Z,6.61
2018-12-24T12:39:33.408Z,6.18
2018-12-24T12:45:28.397Z,7.4
2018-12-24T12:51:23.419Z,7.05
2018-12-24T12:57:18.401Z,8.89
2018-12-24T13:03:13.413Z,7.85
2018-12-24T13:09:08.418Z,7.51
2018-12-24T13:15:03.454Z,9.11
2018-12-24T13:20:58.464Z,9.25
2018-12-24T13:26:53.448Z,6.6
2018-12-24T13:32:48.437Z,6.68
2018-12-24T13:38:43.454Z,7.83
2018-12-24T13:44:38.423Z,9.33
2018-12-24T13:50:33.447Z,8.18
2018-12-24T13:56:28.479Z,8
2018-12-24T14:02:23.465Z,7.58
2018-12-24T14:08:18.432Z,7.46
2018-12-24T14:14:13.474Z,7.23
2018-12-24T14:20:08.451Z,7.76
2018-12-24T14:26:03.455Z,9.36
2018-12-24T14:31:58.464Z,8.61
2018-12-24T14:37:53.473Z,9.47
2018-12-24T14:43:48.491Z,7.03
2018-12-24T14:49:43.491Z,6.01
2018-12-24T14:55:38.468Z,6.77
2018-12-24T15:01:33.488Z,6.47
2018-12-24T15:07:28.475Z,8.78
2018-12-24T15:13:23.528Z,9.39
2018-12-24T15:19:18.497Z,8.92
2018-12-24T15:25:13.508Z,14.83
2018-12-24T15:31:08.485Z,15.11
2018-12-24T15:37:03.489Z,23.34
2018-12-24T15:42:58.542Z,17.76
2018-12-24T15:48:53.508Z,11.96
2018-12-24T15:54:48.526Z,21.14
2018-12-24T16:00:43.508Z,23.69
2018-12-24T16:06:38.503Z,17.07
2018-12-24T16:12:33.525Z,16.99
2018-12-24T16:18:28.516Z,18.7
2018-12-24T16:24:23.512Z,14.01
2018-12-24T16:30:18.631Z,15.64
2018-12-24T16:36:13.545Z,13.72
2018-12-24T16:42:08.531Z,16.11
2018-12-24T16:48:03.541Z,19.87
2018-12-24T16:53:58.549Z,11.45
2018-12-24T16:59:53.559Z,26.7
2018-12-24T17:05:48.547Z,26.4
2018-12-24T17:11:43.541Z,21.97
2018-12-24T17:17:38.563Z,11.59
2018-12-24T17:23:33.571Z,9.87
2018-12-24T17:29:28.556Z,12.93
2018-12-24T17:35:23.544Z,22.39
2018-12-24T17:41:18.575Z,15.6
2018-12-24T17:47:16.308Z,7.01
2018-12-24T17:53:08.649Z,3.16
2018-12-24T17:59:03.605Z,3.02
2018-12-24T18:04:58.604Z,4.86
2018-12-24T18:10:53.579Z,9.03
2018-12-24T18:16:48.623Z,9.05
2018-12-24T18:22:43.592Z,18.46
2018-12-24T18:28:38.594Z,11.83
2018-12-24T18:34:33.633Z,10.07
2018-12-24T18:40:28.613Z,2.76
2018-12-24T18:46:23.593Z,3.77
2018-12-24T18:52:18.637Z,5.49
2018-12-24T18:58:13.630Z,2.67
2018-12-24T19:04:08.594Z,2.25
2018-12-24T19:10:03.615Z,2.63
2018-12-24T19:15:58.623Z,5.18
2018-12-24T19:21:53.650Z,2.85
2018-12-24T19:27:48.617Z,4.89
2018-12-24T19:33:43.686Z,5.93
2018-12-24T19:39:38.620Z,3.51
2018-12-24T19:45:33.613Z,2.34
2018-12-24T19:51:28.621Z,3.09
2018-12-24T19:57:23.627Z,2.39
2018-12-24T20:03:18.620Z,3.54
2018-12-24T20:09:13.653Z,7.8
2018-12-24T20:15:08.710Z,4.89
2018-12-24T20:21:03.678Z,5.41
2018-12-24T20:26:58.662Z,6.44
2018-12-24T20:32:53.658Z,4.36
2018-12-24T20:38:48.734Z,3.1
2018-12-24T20:44:43.694Z,4.8
2018-12-24T20:50:38.812Z,1.92
2018-12-24T20:56:33.668Z,3.65
2018-12-24T21:02:28.666Z,4.33
2018-12-24T21:08:23.677Z,3.92
2018-12-24T21:14:18.688Z,2.14
2018-12-24T21:20:13.706Z,3.13
2018-12-24T21:26:08.719Z,4.29
2018-12-24T21:32:03.751Z,3.2
2018-12-24T21:37:58.686Z,3.23
2018-12-24T21:43:53.692Z,4.28
2018-12-24T21:49:48.722Z,3.67
2018-12-24T21:55:43.711Z,3.3
2018-12-24T22:01:38.713Z,2.95
2018-12-24T22:07:33.786Z,3.53
2018-12-24T22:13:28.709Z,3.96
2018-12-24T22:19:23.717Z,4.1
2018-12-24T22:25:18.743Z,2.22
2018-12-24T22:31:13.706Z,4.02
2018-12-24T22:37:08.871Z,4.24
2018-12-24T22:43:03.745Z,3.4
2018-12-24T22:48:58.706Z,2.2
2018-12-24T22:54:53.720Z,1.65
2018-12-24T23:00:48.722Z,2.09
2018-12-24T23:06:43.733Z,2
2018-12-24T23:12:38.724Z,2.42
2018-12-24T23:18:33.744Z,2.43
2018-12-24T23:24:28.732Z,1.73
2018-12-24T23:30:23.759Z,2.74
2018-12-24T23:36:18.734Z,2.85
2018-12-24T23:42:13.749Z,2.43
2018-12-24T23:48:08.740Z,3.4
2018-12-24T23:54:03.742Z,1.97
2018-12-24T23:59:58.782Z,2.54
